EGJB

Guernsey Airport

Saint Peter Port, Guernsey
TAF EGJB 182259Z 1900/1909 21014KT 9999 SCT015 PROB40 TEMPO 1900/1909 20028G40KT 5000 +SHRA BKN015CB
Issued Valid From Valid To
Dec-18 @ 22:59 UTC
(3 hours ago)
Dec-19 @ 00:00 UTC
(2 hours ago)
Dec-19 @ 09:00 UTC
(in 7 hours)
Dec-19 @ 00:00 to Dec-19 @ 09:00
TAF EGJB 182259Z 1900/1909 21014KT 9999 SCT015
Wind Visibility Clouds
210° at 14 knots 10,000+ meters
  • Scattered at 1,500' AGL
Temporary  (Probability 40%) Dec-19 @ 00:00 to Dec-19 @ 09:00
PROB40 TEMPO 1900/1909 20028G40KT 5000 +SHRA BKN015CB
Wind Visibility Clouds Conditions
200° at 28 knots
 Gusting to 40 knots
5,005 meters
  • Broken at 1,500' AGL
  • Heavy Rain
TAF EGJB 182259Z 1900/1909 21014KT 9999 SCT015 PROB40 TEMPO 1900/1909 20028G40KT 5000 +SHRA BKN015CB
Issued Dec-18 @ 22:59 UTC
(3 hours ago)
Valid From Dec-19 @ 00:00 UTC
(2 hours ago)
Valid To Dec-19 @ 09:00 UTC
(in 7 hours)
Dec-19 @ 00:00 - Dec-19 @ 09:00
Wind Visibility
210° at 14 knots 10,000+ meters
Clouds
  • Scattered at 1,500' AGL
Probability 40% Temporary Dec-19 @ 00:00 - Dec-19 @ 09:00
Wind Visibility
200° at 28 knots
 Gusting to 40 knots
5,005 meters
Clouds
  • Broken at 1,500' AGL
Conditions
  • Heavy Rain